sensor_id;sensor_type;location;lat;lon;timestamp;pressure;altitude;pressure_sealevel;temperature;humidity
63347;BME280;49472;49.880;8.650;2023-02-03T00:01:52;101225.81;;;12.05;nan
63347;BME280;49472;49.880;8.650;2023-02-03T00:04:17;101241.66;;;12.26;nan
63347;BME280;49472;49.880;8.650;2023-02-03T00:06:43;101247.25;;;12.04;nan
63347;BME280;49472;49.880;8.650;2023-02-03T00:09:09;101241.56;;;12.13;nan
63347;BME280;49472;49.880;8.650;2023-02-03T00:11:35;101238.25;;;12.40;nan
63347;BME280;49472;49.880;8.650;2023-02-03T00:14:00;101252.72;;;12.12;nan
63347;BME280;49472;49.880;8.650;2023-02-03T00:16:26;101247.50;;;12.43;nan
63347;BME280;49472;49.880;8.650;2023-02-03T00:18:51;101243.09;;;12.30;nan
63347;BME280;49472;49.880;8.650;2023-02-03T00:21:16;101249.06;;;12.02;nan
63347;BME280;49472;49.880;8.650;2023-02-03T00:23:42;101220.88;;;12.02;nan
63347;BME280;49472;49.880;8.650;2023-02-03T00:26:09;101203.09;;;12.28;nan
63347;BME280;49472;49.880;8.650;2023-02-03T00:28:34;101197.22;;;12.26;nan
63347;BME280;49472;49.880;8.650;2023-02-03T00:31:00;101204.44;;;12.33;nan
63347;BME280;49472;49.880;8.650;2023-02-03T00:33:25;101202.19;;;12.14;nan
63347;BME280;49472;49.880;8.650;2023-02-03T00:35:50;101201.72;;;12.22;nan
63347;BME280;49472;49.880;8.650;2023-02-03T00:38:15;101188.50;;;12.43;nan
63347;BME280;49472;49.880;8.650;2023-02-03T00:40:41;101195.91;;;12.47;nan
63347;BME280;49472;49.880;8.650;2023-02-03T00:43:06;101209.97;;;12.27;nan
63347;BME280;49472;49.880;8.650;2023-02-03T00:45:31;101207.31;;;12.29;nan
63347;BME280;49472;49.880;8.650;2023-02-03T00:47:57;101235.53;;;12.00;nan
63347;BME280;49472;49.880;8.650;2023-02-03T00:50:22;101225.81;;;12.34;nan
63347;BME280;49472;49.880;8.650;2023-02-03T00:52:47;101225.63;;;12.37;nan
63347;BME280;49472;49.880;8.650;2023-02-03T00:55:13;101240.94;;;12.24;nan
63347;BME280;49472;49.880;8.650;2023-02-03T00:57:38;101228.00;;;12.26;nan
63347;BME280;49472;49.880;8.650;2023-02-03T01:00:04;101224.88;;;12.35;nan
63347;BME280;49472;49.880;8.650;2023-02-03T01:02:29;101218.84;;;11.93;nan
63347;BME280;49472;49.880;8.650;2023-02-03T01:04:55;101207.97;;;11.89;nan
63347;BME280;49472;49.880;8.650;2023-02-03T01:07:20;101208.06;;;12.02;nan
63347;BME280;49472;49.880;8.650;2023-02-03T01:09:45;101206.97;;;12.06;nan
63347;BME280;49472;49.880;8.650;2023-02-03T01:12:10;101161.22;;;12.42;nan
63347;BME280;49472;49.880;8.650;2023-02-03T01:14:36;101165.97;;;12.33;nan
63347;BME280;49472;49.880;8.650;2023-02-03T01:17:01;101158.63;;;12.14;nan
63347;BME280;49472;49.880;8.650;2023-02-03T01:19:26;101151.47;;;11.77;nan
63347;BME280;49472;49.880;8.650;2023-02-03T01:21:52;101154.22;;;12.02;nan
63347;BME280;49472;49.880;8.650;2023-02-03T01:24:17;101160.84;;;11.92;nan
63347;BME280;49472;49.880;8.650;2023-02-03T01:26:43;101162.72;;;12.31;nan
63347;BME280;49472;49.880;8.650;2023-02-03T01:29:08;101196.78;;;11.90;nan
63347;BME280;49472;49.880;8.650;2023-02-03T01:31:36;101199.25;;;12.21;nan
63347;BME280;49472;49.880;8.650;2023-02-03T01:34:04;101185.25;;;12.12;nan
63347;BME280;49472;49.880;8.650;2023-02-03T01:36:31;101182.78;;;12.25;nan
63347;BME280;49472;49.880;8.650;2023-02-03T01:38:58;101160.91;;;12.05;nan
63347;BME280;49472;49.880;8.650;2023-02-03T01:41:26;101164.16;;;12.21;nan
63347;BME280;49472;49.880;8.650;2023-02-03T01:43:53;101161.53;;;12.08;nan
63347;BME280;49472;49.880;8.650;2023-02-03T01:46:35;101162.31;;;12.37;nan
63347;BME280;49472;49.880;8.650;2023-02-03T01:49:08;101154.03;;;12.20;nan
63347;BME280;49472;49.880;8.650;2023-02-03T01:51:37;101156.72;;;12.31;nan
63347;BME280;49472;49.880;8.650;2023-02-03T01:54:06;101154.78;;;12.07;nan
63347;BME280;49472;49.880;8.650;2023-02-03T01:56:35;101147.88;;;12.36;nan
63347;BME280;49472;49.880;8.650;2023-02-03T01:59:03;101143.50;;;12.24;nan
63347;BME280;49472;49.880;8.650;2023-02-03T02:01:30;101136.53;;;12.26;nan
63347;BME280;49472;49.880;8.650;2023-02-03T02:03:58;101129.31;;;12.73;nan
63347;BME280;49472;49.880;8.650;2023-02-03T02:06:25;101117.41;;;12.45;nan
63347;BME280;49472;49.880;8.650;2023-02-03T02:08:52;101113.59;;;12.37;nan
63347;BME280;49472;49.880;8.650;2023-02-03T02:11:19;101122.22;;;12.36;nan
63347;BME280;49472;49.880;8.650;2023-02-03T02:13:49;101111.28;;;12.47;nan
63347;BME280;49472;49.880;8.650;2023-02-03T02:16:21;101130.94;;;12.34;nan
63347;BME280;49472;49.880;8.650;2023-02-03T02:22:13;101135.75;;;12.11;nan
63347;BME280;49472;49.880;8.650;2023-02-03T02:25:03;101111.44;;;12.31;nan
63347;BME280;49472;49.880;8.650;2023-02-03T02:33:39;101122.94;;;12.78;nan
63347;BME280;49472;49.880;8.650;2023-02-03T02:36:09;101125.19;;;12.70;nan
63347;BME280;49472;49.880;8.650;2023-02-03T02:41:25;101139.88;;;12.81;nan
63347;BME280;49472;49.880;8.650;2023-02-03T02:49:15;101138.41;;;12.64;nan
63347;BME280;49472;49.880;8.650;2023-02-03T02:51:44;101146.13;;;12.23;nan
63347;BME280;49472;49.880;8.650;2023-02-03T02:54:16;101144.56;;;12.34;nan
63347;BME280;49472;49.880;8.650;2023-02-03T02:56:44;101156.06;;;12.69;nan
63347;BME280;49472;49.880;8.650;2023-02-03T02:59:13;101176.28;;;12.46;nan
63347;BME280;49472;49.880;8.650;2023-02-03T03:01:38;101175.22;;;12.36;nan
63347;BME280;49472;49.880;8.650;2023-02-03T03:04:06;101159.66;;;12.39;nan
63347;BME280;49472;49.880;8.650;2023-02-03T03:06:40;101161.72;;;12.74;nan
63347;BME280;49472;49.880;8.650;2023-02-03T03:09:24;101180.53;;;12.87;nan
63347;BME280;49472;49.880;8.650;2023-02-03T03:11:58;101177.38;;;12.56;nan
63347;BME280;49472;49.880;8.650;2023-02-03T03:14:27;101168.00;;;12.28;nan
63347;BME280;49472;49.880;8.650;2023-02-03T03:17:01;101167.09;;;12.56;nan
63347;BME280;49472;49.880;8.650;2023-02-03T03:19:33;101162.59;;;12.33;nan
63347;BME280;49472;49.880;8.650;2023-02-03T03:22:02;101152.16;;;12.36;nan
63347;BME280;49472;49.880;8.650;2023-02-03T03:24:32;101164.47;;;12.16;nan
63347;BME280;49472;49.880;8.650;2023-02-03T03:27:07;101152.56;;;12.15;nan
63347;BME280;49472;49.880;8.650;2023-02-03T03:29:40;101164.56;;;12.01;nan
63347;BME280;49472;49.880;8.650;2023-02-03T03:32:07;101154.69;;;12.09;nan
63347;BME280;49472;49.880;8.650;2023-02-03T03:34:32;101142.84;;;12.21;nan
63347;BME280;49472;49.880;8.650;2023-02-03T03:37:12;101137.91;;;12.18;nan
63347;BME280;49472;49.880;8.650;2023-02-03T03:39:55;101150.31;;;12.38;nan
63347;BME280;49472;49.880;8.650;2023-02-03T03:42:28;101171.91;;;12.07;nan
63347;BME280;49472;49.880;8.650;2023-02-03T03:45:03;101152.69;;;12.00;nan
63347;BME280;49472;49.880;8.650;2023-02-03T03:47:35;101147.22;;;11.91;nan
63347;BME280;49472;49.880;8.650;2023-02-03T03:50:05;101128.66;;;12.15;nan
63347;BME280;49472;49.880;8.650;2023-02-03T03:52:34;101116.03;;;12.12;nan
63347;BME280;49472;49.880;8.650;2023-02-03T03:55:02;101119.44;;;12.12;nan
63347;BME280;49472;49.880;8.650;2023-02-03T03:57:42;101120.56;;;11.94;nan
63347;BME280;49472;49.880;8.650;2023-02-03T04:00:11;101121.00;;;11.72;nan
63347;BME280;49472;49.880;8.650;2023-02-03T04:02:41;101128.25;;;11.94;nan
63347;BME280;49472;49.880;8.650;2023-02-03T04:05:11;101133.09;;;11.99;nan
63347;BME280;49472;49.880;8.650;2023-02-03T04:07:41;101129.63;;;12.00;nan
63347;BME280;49472;49.880;8.650;2023-02-03T04:12:38;101140.31;;;11.78;nan
63347;BME280;49472;49.880;8.650;2023-02-03T04:15:04;101115.31;;;12.10;nan
63347;BME280;49472;49.880;8.650;2023-02-03T04:17:29;101123.22;;;11.92;nan
63347;BME280;49472;49.880;8.650;2023-02-03T04:19:54;101119.19;;;11.74;nan
63347;BME280;49472;49.880;8.650;2023-02-03T04:22:20;101109.72;;;12.18;nan
63347;BME280;49472;49.880;8.650;2023-02-03T04:24:45;101109.31;;;11.97;nan
63347;BME280;49472;49.880;8.650;2023-02-03T04:27:10;101114.25;;;12.00;nan
63347;BME280;49472;49.880;8.650;2023-02-03T04:29:36;101108.97;;;12.15;nan
63347;BME280;49472;49.880;8.650;2023-02-03T04:32:01;101111.00;;;12.10;nan
63347;BME280;49472;49.880;8.650;2023-02-03T04:34:26;101120.16;;;12.69;nan
63347;BME280;49472;49.880;8.650;2023-02-03T04:36:51;101136.31;;;12.56;nan
63347;BME280;49472;49.880;8.650;2023-02-03T04:39:17;101130.75;;;12.23;nan
63347;BME280;49472;49.880;8.650;2023-02-03T04:41:42;101120.38;;;11.97;nan
63347;BME280;49472;49.880;8.650;2023-02-03T04:44:07;101102.63;;;11.94;nan
63347;BME280;49472;49.880;8.650;2023-02-03T04:46:33;101093.94;;;11.97;nan
63347;BME280;49472;49.880;8.650;2023-02-03T04:48:59;101091.03;;;11.88;nan
63347;BME280;49472;49.880;8.650;2023-02-03T04:51:24;101112.00;;;12.08;nan
63347;BME280;49472;49.880;8.650;2023-02-03T04:53:50;101113.16;;;12.31;nan
63347;BME280;49472;49.880;8.650;2023-02-03T04:56:15;101115.75;;;12.44;nan
63347;BME280;49472;49.880;8.650;2023-02-03T04:58:40;101129.41;;;12.84;nan
63347;BME280;49472;49.880;8.650;2023-02-03T05:01:07;101137.13;;;12.84;nan
63347;BME280;49472;49.880;8.650;2023-02-03T05:03:33;101135.78;;;12.78;nan
63347;BME280;49472;49.880;8.650;2023-02-03T05:05:59;101139.38;;;12.49;nan
63347;BME280;49472;49.880;8.650;2023-02-03T05:08:24;101133.16;;;13.06;nan
63347;BME280;49472;49.880;8.650;2023-02-03T05:10:49;101129.22;;;12.87;nan
63347;BME280;49472;49.880;8.650;2023-02-03T05:13:15;101127.06;;;12.81;nan
63347;BME280;49472;49.880;8.650;2023-02-03T05:15:40;101133.38;;;12.63;nan
63347;BME280;49472;49.880;8.650;2023-02-03T05:18:05;101127.28;;;12.91;nan
63347;BME280;49472;49.880;8.650;2023-02-03T05:20:30;101124.78;;;12.36;nan
63347;BME280;49472;49.880;8.650;2023-02-03T05:22:57;101123.50;;;12.56;nan
63347;BME280;49472;49.880;8.650;2023-02-03T05:25:22;101127.59;;;11.90;nan
63347;BME280;49472;49.880;8.650;2023-02-03T05:27:47;101112.19;;;12.19;nan
63347;BME280;49472;49.880;8.650;2023-02-03T05:30:13;101109.47;;;11.79;nan
63347;BME280;49472;49.880;8.650;2023-02-03T05:32:38;101109.91;;;12.14;nan
63347;BME280;49472;49.880;8.650;2023-02-03T05:35:03;101109.41;;;12.36;nan
63347;BME280;49472;49.880;8.650;2023-02-03T05:37:29;101106.53;;;12.14;nan
63347;BME280;49472;49.880;8.650;2023-02-03T05:39:54;101108.13;;;12.69;nan
63347;BME280;49472;49.880;8.650;2023-02-03T05:42:45;101104.09;;;12.52;nan
63347;BME280;49472;49.880;8.650;2023-02-03T05:45:10;101104.88;;;12.40;nan
63347;BME280;49472;49.880;8.650;2023-02-03T05:47:36;101103.78;;;12.44;nan
63347;BME280;49472;49.880;8.650;2023-02-03T05:50:01;101088.25;;;12.73;nan
63347;BME280;49472;49.880;8.650;2023-02-03T05:52:26;101080.25;;;12.77;nan
63347;BME280;49472;49.880;8.650;2023-02-03T05:54:51;101069.78;;;12.41;nan
63347;BME280;49472;49.880;8.650;2023-02-03T05:57:17;101067.53;;;13.01;nan
63347;BME280;49472;49.880;8.650;2023-02-03T05:59:43;101070.88;;;12.64;nan
63347;BME280;49472;49.880;8.650;2023-02-03T06:02:08;101087.69;;;12.28;nan
63347;BME280;49472;49.880;8.650;2023-02-03T06:04:34;101083.13;;;12.73;nan
63347;BME280;49472;49.880;8.650;2023-02-03T06:06:59;101085.81;;;12.17;nan
63347;BME280;49472;49.880;8.650;2023-02-03T06:09:24;101082.69;;;11.70;nan
63347;BME280;49472;49.880;8.650;2023-02-03T06:11:50;101079.28;;;12.26;nan
63347;BME280;49472;49.880;8.650;2023-02-03T06:14:15;101082.84;;;12.23;nan
63347;BME280;49472;49.880;8.650;2023-02-03T06:16:40;101090.16;;;11.88;nan
63347;BME280;49472;49.880;8.650;2023-02-03T06:19:05;101087.63;;;12.29;nan
63347;BME280;49472;49.880;8.650;2023-02-03T06:21:31;101077.34;;;12.02;nan
63347;BME280;49472;49.880;8.650;2023-02-03T06:23:56;101084.22;;;12.02;nan
63347;BME280;49472;49.880;8.650;2023-02-03T06:26:22;101091.91;;;11.87;nan
63347;BME280;49472;49.880;8.650;2023-02-03T06:28:47;101091.09;;;12.01;nan
63347;BME280;49472;49.880;8.650;2023-02-03T06:31:13;101084.81;;;12.20;nan
63347;BME280;49472;49.880;8.650;2023-02-03T06:33:38;101109.28;;;11.82;nan
63347;BME280;49472;49.880;8.650;2023-02-03T06:36:03;101088.16;;;11.64;nan
63347;BME280;49472;49.880;8.650;2023-02-03T06:38:29;101081.44;;;12.05;nan
63347;BME280;49472;49.880;8.650;2023-02-03T06:40:54;101076.72;;;12.26;nan
63347;BME280;49472;49.880;8.650;2023-02-03T06:43:19;101080.13;;;11.70;nan
63347;BME280;49472;49.880;8.650;2023-02-03T06:45:46;101088.22;;;12.33;nan
63347;BME280;49472;49.880;8.650;2023-02-03T06:48:13;101095.81;;;12.07;nan
63347;BME280;49472;49.880;8.650;2023-02-03T06:50:38;101097.69;;;11.91;nan
63347;BME280;49472;49.880;8.650;2023-02-03T06:53:04;101096.75;;;12.06;nan
63347;BME280;49472;49.880;8.650;2023-02-03T06:55:29;101093.88;;;12.11;nan
63347;BME280;49472;49.880;8.650;2023-02-03T06:57:54;101106.31;;;12.17;nan
63347;BME280;49472;49.880;8.650;2023-02-03T07:00:20;101114.44;;;11.97;nan
63347;BME280;49472;49.880;8.650;2023-02-03T07:02:55;101123.91;;;11.80;nan
63347;BME280;49472;49.880;8.650;2023-02-03T07:05:22;101138.84;;;11.88;nan
63347;BME280;49472;49.880;8.650;2023-02-03T07:07:47;101123.47;;;12.16;nan
63347;BME280;49472;49.880;8.650;2023-02-03T07:10:13;101133.44;;;12.07;nan
63347;BME280;49472;49.880;8.650;2023-02-03T07:12:38;101138.16;;;12.27;nan
63347;BME280;49472;49.880;8.650;2023-02-03T07:15:04;101135.91;;;12.08;nan
63347;BME280;49472;49.880;8.650;2023-02-03T07:17:30;101132.22;;;12.27;nan
63347;BME280;49472;49.880;8.650;2023-02-03T07:19:55;101136.19;;;12.45;nan
63347;BME280;49472;49.880;8.650;2023-02-03T07:22:20;101153.16;;;12.33;nan
63347;BME280;49472;49.880;8.650;2023-02-03T07:24:46;101150.75;;;12.45;nan
63347;BME280;49472;49.880;8.650;2023-02-03T07:27:11;101141.81;;;12.37;nan
63347;BME280;49472;49.880;8.650;2023-02-03T07:29:36;101145.47;;;12.60;nan
63347;BME280;49472;49.880;8.650;2023-02-03T07:32:02;101147.09;;;12.07;nan
63347;BME280;49472;49.880;8.650;2023-02-03T07:34:27;101129.25;;;11.77;nan
63347;BME280;49472;49.880;8.650;2023-02-03T07:36:53;101113.41;;;11.99;nan
63347;BME280;49472;49.880;8.650;2023-02-03T07:39:18;101101.00;;;12.47;nan
63347;BME280;49472;49.880;8.650;2023-02-03T07:41:43;101110.16;;;12.24;nan
63347;BME280;49472;49.880;8.650;2023-02-03T07:44:09;101096.28;;;12.14;nan
63347;BME280;49472;49.880;8.650;2023-02-03T07:46:34;101111.09;;;12.63;nan
63347;BME280;49472;49.880;8.650;2023-02-03T07:49:04;101117.25;;;12.60;nan
63347;BME280;49472;49.880;8.650;2023-02-03T07:51:30;101118.34;;;12.84;nan
63347;BME280;49472;49.880;8.650;2023-02-03T07:53:55;101127.38;;;12.49;nan
63347;BME280;49472;49.880;8.650;2023-02-03T07:56:21;101136.13;;;12.32;nan
63347;BME280;49472;49.880;8.650;2023-02-03T07:58:46;101117.13;;;12.49;nan
63347;BME280;49472;49.880;8.650;2023-02-03T08:01:14;101112.84;;;12.63;nan
63347;BME280;49472;49.880;8.650;2023-02-03T08:03:39;101112.38;;;14.22;nan
63347;BME280;49472;49.880;8.650;2023-02-03T08:06:05;101131.75;;;13.27;nan
63347;BME280;49472;49.880;8.650;2023-02-03T08:08:30;101135.03;;;13.16;nan
63347;BME280;49472;49.880;8.650;2023-02-03T08:10:56;101146.56;;;12.84;nan
63347;BME280;49472;49.880;8.650;2023-02-03T08:13:21;101139.25;;;13.43;nan
63347;BME280;49472;49.880;8.650;2023-02-03T08:15:47;101137.69;;;12.62;nan
63347;BME280;49472;49.880;8.650;2023-02-03T08:18:12;101127.00;;;12.55;nan
63347;BME280;49472;49.880;8.650;2023-02-03T08:20:38;101130.78;;;13.02;nan
63347;BME280;49472;49.880;8.650;2023-02-03T08:23:03;101124.63;;;12.52;nan
63347;BME280;49472;49.880;8.650;2023-02-03T08:25:29;101130.56;;;12.80;nan
63347;BME280;49472;49.880;8.650;2023-02-03T08:27:54;101121.81;;;12.70;nan
63347;BME280;49472;49.880;8.650;2023-02-03T08:30:19;101116.53;;;12.98;nan
63347;BME280;49472;49.880;8.650;2023-02-03T08:32:45;101122.38;;;12.60;nan
63347;BME280;49472;49.880;8.650;2023-02-03T08:35:10;101122.06;;;12.52;nan
63347;BME280;49472;49.880;8.650;2023-02-03T08:37:35;101120.84;;;12.98;nan
63347;BME280;49472;49.880;8.650;2023-02-03T08:40:01;101096.78;;;15.07;nan
63347;BME280;49472;49.880;8.650;2023-02-03T08:42:26;101102.38;;;12.66;nan
63347;BME280;49472;49.880;8.650;2023-02-03T08:44:52;101120.75;;;12.59;nan
63347;BME280;49472;49.880;8.650;2023-02-03T08:47:17;101115.59;;;12.99;nan
63347;BME280;49472;49.880;8.650;2023-02-03T08:49:42;101112.97;;;12.74;nan
63347;BME280;49472;49.880;8.650;2023-02-03T08:52:10;101102.97;;;13.22;nan
63347;BME280;49472;49.880;8.650;2023-02-03T08:54:36;101116.22;;;13.03;nan
63347;BME280;49472;49.880;8.650;2023-02-03T08:57:02;101116.69;;;12.82;nan
63347;BME280;49472;49.880;8.650;2023-02-03T08:59:27;101119.81;;;13.00;nan
63347;BME280;49472;49.880;8.650;2023-02-03T09:01:54;101128.00;;;12.80;nan
63347;BME280;49472;49.880;8.650;2023-02-03T09:04:20;101128.69;;;13.35;nan
63347;BME280;49472;49.880;8.650;2023-02-03T09:06:50;101136.59;;;13.32;nan
63347;BME280;49472;49.880;8.650;2023-02-03T09:09:16;101143.00;;;12.99;nan
63347;BME280;49472;49.880;8.650;2023-02-03T09:11:42;101149.97;;;13.50;nan
63347;BME280;49472;49.880;8.650;2023-02-03T09:14:08;101149.09;;;13.11;nan
63347;BME280;49472;49.880;8.650;2023-02-03T09:16:33;101144.63;;;12.87;nan
63347;BME280;49472;49.880;8.650;2023-02-03T09:18:59;101125.75;;;13.01;nan
63347;BME280;49472;49.880;8.650;2023-02-03T09:21:24;101120.00;;;12.97;nan
63347;BME280;49472;49.880;8.650;2023-02-03T09:23:49;101129.59;;;13.21;nan
63347;BME280;49472;49.880;8.650;2023-02-03T09:26:15;101132.44;;;12.64;nan
63347;BME280;49472;49.880;8.650;2023-02-03T09:28:41;101111.66;;;12.81;nan
63347;BME280;49472;49.880;8.650;2023-02-03T09:31:11;101110.13;;;12.91;nan
63347;BME280;49472;49.880;8.650;2023-02-03T09:33:37;101123.41;;;12.98;nan
63347;BME280;49472;49.880;8.650;2023-02-03T09:36:03;101125.31;;;13.34;nan
63347;BME280;49472;49.880;8.650;2023-02-03T09:38:30;101117.06;;;13.42;nan
63347;BME280;49472;49.880;8.650;2023-02-03T09:40:59;101133.09;;;13.58;nan
63347;BME280;49472;49.880;8.650;2023-02-03T09:46:38;101132.50;;;13.42;nan
63347;BME280;49472;49.880;8.650;2023-02-03T09:51:48;101133.59;;;13.51;nan
63347;BME280;49472;49.880;8.650;2023-02-03T09:54:15;101141.00;;;12.77;nan
63347;BME280;49472;49.880;8.650;2023-02-03T09:56:42;101126.78;;;12.98;nan
63347;BME280;49472;49.880;8.650;2023-02-03T09:59:14;101130.84;;;13.28;nan
63347;BME280;49472;49.880;8.650;2023-02-03T10:01:48;101131.44;;;13.19;nan
63347;BME280;49472;49.880;8.650;2023-02-03T10:15:47;101116.75;;;13.72;nan
63347;BME280;49472;49.880;8.650;2023-02-03T10:18:23;101122.47;;;13.12;nan
63347;BME280;49472;49.880;8.650;2023-02-03T10:20:53;101110.97;;;13.17;nan
63347;BME280;49472;49.880;8.650;2023-02-03T10:25:56;101096.50;;;13.03;nan
63347;BME280;49472;49.880;8.650;2023-02-03T10:28:27;101081.53;;;13.10;nan
63347;BME280;49472;49.880;8.650;2023-02-03T10:30:58;101095.44;;;12.80;nan
63347;BME280;49472;49.880;8.650;2023-02-03T10:33:27;101085.94;;;13.08;nan
63347;BME280;49472;49.880;8.650;2023-02-03T10:38:43;101078.56;;;13.29;nan
63347;BME280;49472;49.880;8.650;2023-02-03T10:41:10;101099.81;;;13.31;nan
63347;BME280;49472;49.880;8.650;2023-02-03T10:43:35;101090.84;;;12.98;nan
63347;BME280;49472;49.880;8.650;2023-02-03T10:46:17;101079.59;;;13.27;nan
63347;BME280;49472;49.880;8.650;2023-02-03T10:48:43;101079.06;;;13.34;nan
63347;BME280;49472;49.880;8.650;2023-02-03T10:51:29;101084.81;;;13.38;nan
63347;BME280;49472;49.880;8.650;2023-02-03T10:53:59;101076.44;;;13.73;nan
63347;BME280;49472;49.880;8.650;2023-02-03T10:56:31;101079.66;;;13.51;nan
63347;BME280;49472;49.880;8.650;2023-02-03T10:58:59;101077.38;;;13.08;nan
63347;BME280;49472;49.880;8.650;2023-02-03T11:01:45;101068.34;;;13.40;nan
63347;BME280;49472;49.880;8.650;2023-02-03T11:04:29;101088.63;;;13.32;nan
63347;BME280;49472;49.880;8.650;2023-02-03T11:06:58;101083.78;;;13.40;nan
63347;BME280;49472;49.880;8.650;2023-02-03T11:09:39;101086.19;;;13.80;nan
63347;BME280;49472;49.880;8.650;2023-02-03T11:12:13;101097.34;;;13.42;nan
63347;BME280;49472;49.880;8.650;2023-02-03T11:14:46;101094.25;;;13.37;nan
63347;BME280;49472;49.880;8.650;2023-02-03T11:17:22;101098.81;;;13.34;nan
63347;BME280;49472;49.880;8.650;2023-02-03T11:19:49;101098.06;;;13.32;nan
63347;BME280;49472;49.880;8.650;2023-02-03T11:22:30;101097.63;;;13.25;nan
63347;BME280;49472;49.880;8.650;2023-02-03T11:24:57;101090.03;;;13.11;nan
63347;BME280;49472;49.880;8.650;2023-02-03T11:27:24;101091.19;;;13.32;nan
63347;BME280;49472;49.880;8.650;2023-02-03T11:32:41;101053.66;;;13.42;nan
63347;BME280;49472;49.880;8.650;2023-02-03T11:35:20;101047.75;;;13.66;nan
63347;BME280;49472;49.880;8.650;2023-02-03T11:37:48;101034.81;;;15.54;nan
63347;BME280;49472;49.880;8.650;2023-02-03T11:42:41;101024.56;;;14.16;nan
63347;BME280;49472;49.880;8.650;2023-02-03T11:50:29;101025.44;;;14.39;nan
63347;BME280;49472;49.880;8.650;2023-02-03T11:55:53;101028.38;;;14.69;nan
63347;BME280;49472;49.880;8.650;2023-02-03T12:04:32;101048.72;;;14.72;nan
63347;BME280;49472;49.880;8.650;2023-02-03T12:10:10;101025.44;;;14.39;nan
63347;BME280;49472;49.880;8.650;2023-02-03T12:20:58;101007.53;;;14.72;nan
63347;BME280;49472;49.880;8.650;2023-02-03T12:26:32;101020.03;;;14.54;nan
63347;BME280;49472;49.880;8.650;2023-02-03T12:34:38;100977.38;;;14.86;nan
63347;BME280;49472;49.880;8.650;2023-02-03T12:37:16;100964.00;;;14.81;nan
63347;BME280;49472;49.880;8.650;2023-02-03T12:39:50;100958.06;;;14.91;nan
63347;BME280;49472;49.880;8.650;2023-02-03T12:42:39;100955.81;;;14.75;nan
63347;BME280;49472;49.880;8.650;2023-02-03T12:47:39;100951.13;;;14.81;nan
63347;BME280;49472;49.880;8.650;2023-02-03T12:50:19;100958.81;;;14.47;nan
63347;BME280;49472;49.880;8.650;2023-02-03T12:52:51;100957.69;;;14.85;nan
63347;BME280;49472;49.880;8.650;2023-02-03T12:55:39;100971.59;;;14.60;nan
63347;BME280;49472;49.880;8.650;2023-02-03T12:58:22;100973.41;;;15.04;nan
63347;BME280;49472;49.880;8.650;2023-02-03T13:06:43;100989.22;;;14.88;nan
63347;BME280;49472;49.880;8.650;2023-02-03T13:09:18;100986.84;;;14.74;nan
63347;BME280;49472;49.880;8.650;2023-02-03T13:14:27;100995.75;;;14.81;nan
63347;BME280;49472;49.880;8.650;2023-02-03T13:20:28;100982.97;;;14.68;nan
63347;BME280;49472;49.880;8.650;2023-02-03T13:22:55;100962.03;;;14.84;nan
63347;BME280;49472;49.880;8.650;2023-02-03T13:28:16;100949.25;;;14.60;nan
63347;BME280;49472;49.880;8.650;2023-02-03T13:43:49;100960.66;;;14.45;nan
63347;BME280;49472;49.880;8.650;2023-02-03T13:46:27;100963.69;;;14.39;nan
63347;BME280;49472;49.880;8.650;2023-02-03T13:48:56;100965.31;;;14.40;nan
63347;BME280;49472;49.880;8.650;2023-02-03T13:51:24;100965.59;;;16.56;nan
63347;BME280;49472;49.880;8.650;2023-02-03T13:54:00;100965.50;;;16.15;nan
63347;BME280;49472;49.880;8.650;2023-02-03T13:56:27;100949.81;;;15.43;nan
63347;BME280;49472;49.880;8.650;2023-02-03T13:59:00;100958.28;;;15.11;nan
63347;BME280;49472;49.880;8.650;2023-02-03T14:01:34;100960.50;;;14.93;nan
63347;BME280;49472;49.880;8.650;2023-02-03T14:04:03;100954.53;;;15.15;nan
63347;BME280;49472;49.880;8.650;2023-02-03T14:09:00;100973.03;;;14.64;nan
63347;BME280;49472;49.880;8.650;2023-02-03T14:19:11;100950.13;;;14.25;nan
63347;BME280;49472;49.880;8.650;2023-02-03T14:21:45;100958.00;;;14.46;nan
63347;BME280;49472;49.880;8.650;2023-02-03T14:24:12;100968.75;;;14.05;nan
63347;BME280;49472;49.880;8.650;2023-02-03T14:29:09;100960.72;;;13.85;nan
63347;BME280;49472;49.880;8.650;2023-02-03T14:32:05;100966.69;;;14.21;nan
63347;BME280;49472;49.880;8.650;2023-02-03T14:34:36;100992.06;;;14.15;nan
63347;BME280;49472;49.880;8.650;2023-02-03T14:53:57;100995.06;;;14.44;nan
63347;BME280;49472;49.880;8.650;2023-02-03T14:59:44;101015.69;;;13.72;nan
63347;BME280;49472;49.880;8.650;2023-02-03T15:04:39;100981.66;;;13.68;nan
63347;BME280;49472;49.880;8.650;2023-02-03T15:07:04;100973.13;;;13.67;nan
63347;BME280;49472;49.880;8.650;2023-02-03T15:09:38;100984.44;;;13.89;nan
63347;BME280;49472;49.880;8.650;2023-02-03T15:12:23;100980.09;;;14.02;nan
63347;BME280;49472;49.880;8.650;2023-02-03T15:14:49;100986.81;;;13.68;nan
63347;BME280;49472;49.880;8.650;2023-02-03T15:17:32;100998.16;;;13.89;nan
63347;BME280;49472;49.880;8.650;2023-02-03T15:19:58;101011.06;;;13.77;nan
63347;BME280;49472;49.880;8.650;2023-02-03T15:22:26;100997.69;;;13.96;nan
63347;BME280;49472;49.880;8.650;2023-02-03T15:24:54;101026.81;;;13.59;nan
63347;BME280;49472;49.880;8.650;2023-02-03T15:27:26;101021.75;;;13.71;nan
63347;BME280;49472;49.880;8.650;2023-02-03T15:29:52;101026.19;;;13.93;nan
63347;BME280;49472;49.880;8.650;2023-02-03T15:32:47;101031.97;;;13.83;nan
63347;BME280;49472;49.880;8.650;2023-02-03T15:35:18;101031.22;;;14.18;nan
63347;BME280;49472;49.880;8.650;2023-02-03T15:37:54;101034.50;;;13.96;nan
63347;BME280;49472;49.880;8.650;2023-02-03T15:40:25;101040.81;;;13.92;nan
63347;BME280;49472;49.880;8.650;2023-02-03T15:42:58;101035.13;;;14.00;nan
63347;BME280;49472;49.880;8.650;2023-02-03T15:45:35;101032.88;;;13.95;nan